createdAt,value
2018-09-28T00:01:03.682Z,11.60
2018-09-28T00:03:31.319Z,11.60
2018-09-28T00:05:58.970Z,11.70
2018-09-28T00:08:26.570Z,11.70
2018-09-28T00:10:54.494Z,11.60
2018-09-28T00:13:22.062Z,11.60
2018-09-28T00:15:49.759Z,11.50
2018-09-28T00:18:17.353Z,11.50
2018-09-28T00:20:45.008Z,11.50
2018-09-28T00:23:12.616Z,11.50
2018-09-28T00:25:40.308Z,11.40
2018-09-28T00:28:07.983Z,11.40
2018-09-28T00:30:35.556Z,11.40
2018-09-28T00:33:03.179Z,11.40
2018-09-28T00:35:30.680Z,11.40
2018-09-28T00:37:58.299Z,11.30
2018-09-28T00:40:25.889Z,11.20
2018-09-28T00:42:54.658Z,11.30
2018-09-28T00:45:22.214Z,11.20
2018-09-28T00:47:49.857Z,11.10
2018-09-28T00:50:17.884Z,11.20
2018-09-28T00:52:45.502Z,11.20
2018-09-28T00:55:13.588Z,11.20
2018-09-28T00:57:41.116Z,11.20
2018-09-28T01:00:08.751Z,11.10
2018-09-28T01:02:36.418Z,11.00
2018-09-28T01:05:05.140Z,11.00
2018-09-28T01:07:33.471Z,11.00
2018-09-28T01:10:01.698Z,11.10
2018-09-28T01:12:29.491Z,11.00
2018-09-28T01:14:57.048Z,11.10
2018-09-28T01:17:24.591Z,11.00
2018-09-28T01:19:52.931Z,10.90
2018-09-28T01:22:20.948Z,10.80
2018-09-28T01:24:48.627Z,10.80
2018-09-28T01:27:16.351Z,10.90
2018-09-28T01:29:43.914Z,10.80
2018-09-28T01:32:11.415Z,10.90
2018-09-28T01:34:39.650Z,10.90
2018-09-28T01:37:08.267Z,10.90
2018-09-28T01:39:35.862Z,10.90
2018-09-28T01:42:04.152Z,10.90
2018-09-28T01:44:31.962Z,10.90
2018-09-28T01:46:59.493Z,10.70
2018-09-28T01:49:27.168Z,10.80
2018-09-28T01:51:54.762Z,10.70
2018-09-28T01:54:23.007Z,10.70
2018-09-28T01:56:51.265Z,10.80
2018-09-28T01:59:19.035Z,10.80
2018-09-28T02:01:46.714Z,10.70
2018-09-28T02:04:14.276Z,10.70
2018-09-28T02:06:41.933Z,10.70
2018-09-28T02:09:14.485Z,10.80
2018-09-28T02:11:42.143Z,10.80
2018-09-28T02:14:10.412Z,10.80
2018-09-28T02:16:37.967Z,10.80
2018-09-28T02:19:05.600Z,10.70
2018-09-28T02:21:33.199Z,10.50
2018-09-28T02:24:00.902Z,10.60
2018-09-28T02:26:28.485Z,10.60
2018-09-28T02:28:56.662Z,10.60
2018-09-28T02:31:24.443Z,10.40
2018-09-28T02:33:51.994Z,10.50
2018-09-28T02:36:19.690Z,10.40
2018-09-28T02:38:47.360Z,10.40
2018-09-28T02:41:15.043Z,10.40
2018-09-28T02:43:42.643Z,10.40
2018-09-28T02:46:10.271Z,10.40
2018-09-28T02:48:37.846Z,10.50
2018-09-28T02:51:05.790Z,10.60
2018-09-28T02:53:33.327Z,10.50
2018-09-28T02:56:00.978Z,10.50
2018-09-28T02:58:29.231Z,10.50
2018-09-28T03:00:57.538Z,10.60
2018-09-28T03:03:25.075Z,10.40
2018-09-28T03:05:52.669Z,10.30
2018-09-28T03:08:20.947Z,10.40
2018-09-28T03:10:48.486Z,10.40
2018-09-28T03:13:16.071Z,10.40
2018-09-28T03:15:43.574Z,10.30
2018-09-28T03:18:11.151Z,10.20
2018-09-28T03:20:38.684Z,10.10
2018-09-28T03:23:06.285Z,10.10
2018-09-28T03:25:33.965Z,10.20
2018-09-28T03:28:01.643Z,10.30
2018-09-28T03:30:29.178Z,10.30
2018-09-28T03:32:57.479Z,10.30
2018-09-28T03:35:25.089Z,10.20
2018-09-28T03:37:52.646Z,10.30
2018-09-28T03:40:20.290Z,10.20
2018-09-28T03:42:47.825Z,10.20
2018-09-28T03:45:15.430Z,10.10
2018-09-28T03:47:45.953Z,10.10
2018-09-28T03:50:13.718Z,10.10
2018-09-28T03:52:41.259Z,10.00
2018-09-28T03:55:08.838Z,10.10
2018-09-28T03:57:37.082Z,10.10
2018-09-28T04:00:04.956Z,10.00
2018-09-28T04:02:32.591Z,10.00
2018-09-28T04:05:00.354Z,10.00
2018-09-28T04:07:27.892Z,9.90
2018-09-28T04:09:55.508Z,9.90
2018-09-28T04:12:23.237Z,10.00
2018-09-28T04:14:50.809Z,10.10
2018-09-28T04:17:18.654Z,10.10
2018-09-28T04:19:46.188Z,10.10
2018-09-28T04:22:13.692Z,10.20
2018-09-28T04:24:41.168Z,10.20
2018-09-28T04:27:08.631Z,10.10
2018-09-28T04:29:36.119Z,10.00
2018-09-28T04:32:04.206Z,10.00
2018-09-28T04:34:31.782Z,10.00
2018-09-28T04:36:59.357Z,10.00
2018-09-28T04:39:26.954Z,10.00
2018-09-28T04:41:54.442Z,10.00
2018-09-28T04:44:22.219Z,9.90
2018-09-28T04:46:49.729Z,9.90
2018-09-28T04:49:17.330Z,9.80
2018-09-28T04:51:44.955Z,9.80
2018-09-28T04:54:12.596Z,9.70
2018-09-28T04:56:40.209Z,9.60
2018-09-28T04:59:08.135Z,9.80
2018-09-28T05:01:35.715Z,9.60
2018-09-28T05:04:03.306Z,9.60
2018-09-28T05:06:30.863Z,9.70
2018-09-28T05:08:58.708Z,9.90
2018-09-28T05:11:26.283Z,9.90
2018-09-28T05:13:54.559Z,9.80
2018-09-28T05:16:22.190Z,9.70
2018-09-28T05:18:49.884Z,9.70
2018-09-28T05:21:17.493Z,9.60
2018-09-28T05:23:44.926Z,9.70
2018-09-28T05:26:12.538Z,9.70
2018-09-28T05:28:40.181Z,9.60
2018-09-28T05:31:07.796Z,9.70
2018-09-28T05:33:35.311Z,9.80
2018-09-28T05:36:02.870Z,9.70
2018-09-28T05:38:30.571Z,9.70
2018-09-28T05:40:58.205Z,9.70
2018-09-28T05:43:25.774Z,9.70
2018-09-28T05:45:53.353Z,9.70
2018-09-28T05:48:21.008Z,9.70
2018-09-28T05:50:48.703Z,9.70
2018-09-28T05:53:16.629Z,9.80
2018-09-28T05:55:44.267Z,9.70
2018-09-28T05:58:17.452Z,9.60
2018-09-28T06:00:50.703Z,9.60
2018-09-28T06:03:19.628Z,9.70
2018-09-28T06:05:52.746Z,9.60
2018-09-28T06:08:20.394Z,9.60
2018-09-28T06:10:48.795Z,9.60
2018-09-28T06:13:16.935Z,9.60
2018-09-28T06:15:44.609Z,9.70
2018-09-28T06:18:18.560Z,9.60
2018-09-28T06:20:46.423Z,9.70
2018-09-28T06:23:14.086Z,9.80
2018-09-28T06:26:01.054Z,9.80
2018-09-28T06:28:34.367Z,9.90
2018-09-28T06:34:49.486Z,9.80
2018-09-28T06:40:11.215Z,10.00
2018-09-28T06:42:39.398Z,9.90
2018-09-28T06:45:35.027Z,10.00
2018-09-28T06:48:17.344Z,10.10
2018-09-28T06:50:45.643Z,10.00
2018-09-28T07:33:44.695Z,10.70
2018-09-28T07:36:12.667Z,10.80
2018-09-28T07:38:40.177Z,10.80
2018-09-28T07:41:07.810Z,10.90
2018-09-28T07:43:35.462Z,10.90
2018-09-28T07:46:03.339Z,11.00
2018-09-28T07:48:30.870Z,11.10
2018-09-28T07:51:03.477Z,11.20
2018-09-28T07:53:31.247Z,11.20
2018-09-28T07:55:59.232Z,11.40
2018-09-28T07:58:26.787Z,11.40
2018-09-28T08:00:54.407Z,11.40
2018-09-28T08:03:28.083Z,11.50
2018-09-28T08:05:56.707Z,11.60
2018-09-28T08:08:24.402Z,11.70
2018-09-28T08:10:52.485Z,11.70
2018-09-28T08:13:20.456Z,11.80
2018-09-28T08:15:48.002Z,11.90
2018-09-28T08:18:16.811Z,12.00
2018-09-28T08:20:44.315Z,12.10
2018-09-28T08:23:12.069Z,12.30
2018-09-28T08:25:40.391Z,12.40
2018-09-28T08:28:07.881Z,12.50
2018-09-28T08:30:35.730Z,12.70
2018-09-28T08:33:03.243Z,12.80
2018-09-28T08:35:30.878Z,12.90
2018-09-28T08:37:58.478Z,13.00
2018-09-28T08:40:26.088Z,13.10
2018-09-28T08:42:53.559Z,13.20
2018-09-28T08:45:21.144Z,13.30
2018-09-28T08:47:50.444Z,13.40
2018-09-28T08:50:17.998Z,13.50
2018-09-28T08:52:45.641Z,13.50
2018-09-28T08:55:14.312Z,13.50
2018-09-28T08:57:43.360Z,13.70
2018-09-28T09:00:10.987Z,13.80
2018-09-28T09:02:38.487Z,13.90
2018-09-28T09:05:06.061Z,14.00
2018-09-28T09:07:34.389Z,14.10
2018-09-28T09:10:03.298Z,14.20
2018-09-28T09:12:31.913Z,14.20
2018-09-28T09:15:01.463Z,14.30
2018-09-28T09:17:31.666Z,14.50
2018-09-28T09:22:41.572Z,14.80
2018-09-28T09:25:15.130Z,14.90
2018-09-28T09:27:44.663Z,15.00
2018-09-28T09:30:13.267Z,15.10
2018-09-28T09:32:46.425Z,15.20
2018-09-28T09:35:16.512Z,15.20
2018-09-28T09:37:45.403Z,15.40
2018-09-28T09:40:15.735Z,15.50
2018-09-28T09:42:45.046Z,15.50
2018-09-28T09:45:18.735Z,15.60
2018-09-28T09:47:53.424Z,15.70
2018-09-28T09:50:21.429Z,15.80
2018-09-28T09:52:50.085Z,15.90
2018-09-28T09:55:23.335Z,16.00
2018-09-28T09:57:51.903Z,16.10
2018-09-28T10:02:29.400Z,16.10
2018-09-28T10:04:57.769Z,16.20
2018-09-28T10:07:27.759Z,16.30
2018-09-28T10:09:56.034Z,16.40
2018-09-28T10:12:30.156Z,16.40
2018-09-28T10:15:06.064Z,16.50
2018-09-28T10:17:33.999Z,16.60
2018-09-28T10:23:05.368Z,16.80
2018-09-28T10:25:36.207Z,16.90
2018-09-28T10:28:07.100Z,17.00
2018-09-28T10:30:37.007Z,16.90
2018-09-28T10:33:06.626Z,16.90
2018-09-28T10:35:35.768Z,16.90
2018-09-28T10:38:05.304Z,16.90
2018-09-28T10:40:34.884Z,17.10
2018-09-28T10:43:03.795Z,17.20
2018-09-28T10:45:34.541Z,17.20
2018-09-28T10:48:04.054Z,17.30
2018-09-28T10:50:35.241Z,17.30
2018-09-28T10:53:05.926Z,17.30
2018-09-28T10:55:44.609Z,17.40
2018-09-28T10:58:23.210Z,17.50
2018-09-28T11:00:51.813Z,17.50
2018-09-28T11:03:20.440Z,17.40
2018-09-28T11:05:49.079Z,17.70
2018-09-28T11:08:17.368Z,17.70
2018-09-28T11:10:46.379Z,17.70
2018-09-28T11:13:16.760Z,17.80
2018-09-28T11:15:45.028Z,17.90
2018-09-28T11:18:13.875Z,18.20
2018-09-28T11:20:42.336Z,18.30
2018-09-28T11:23:10.371Z,18.40
2018-09-28T11:25:40.832Z,18.50
2018-09-28T11:28:12.809Z,18.60
2018-09-28T11:30:41.578Z,18.90
2018-09-28T11:33:13.749Z,18.90
2018-09-28T11:35:45.914Z,18.70
2018-09-28T11:38:13.836Z,18.60
2018-09-28T11:54:43.098Z,18.60
2018-09-28T11:57:16.633Z,19.00
2018-09-28T11:59:47.209Z,19.10
2018-09-28T12:02:15.984Z,19.00
2018-09-28T12:04:44.612Z,19.20
2018-09-28T12:07:19.015Z,19.20
2018-09-28T12:09:47.793Z,19.30
2018-09-28T12:12:17.410Z,19.30
2018-09-28T12:14:49.482Z,19.30
2018-09-28T12:17:21.415Z,19.40
2018-09-28T12:19:54.539Z,19.20
2018-09-28T12:22:26.517Z,19.30
2018-09-28T12:24:58.554Z,19.40
2018-09-28T12:27:27.587Z,19.40
2018-09-28T12:32:37.045Z,19.40
2018-09-28T12:35:04.931Z,19.50
2018-09-28T12:37:38.723Z,19.50
2018-09-28T12:40:06.910Z,19.30
2018-09-28T12:42:34.607Z,19.30
2018-09-28T12:45:03.650Z,19.30
2018-09-28T12:47:32.275Z,19.10
2018-09-28T12:50:01.725Z,19.00
2018-09-28T12:52:36.084Z,18.90
2018-09-28T12:55:08.862Z,18.80
2018-09-28T12:57:39.918Z,18.80
2018-09-28T13:00:12.533Z,18.70
2018-09-28T13:02:44.740Z,18.50
2018-09-28T13:05:22.919Z,18.50
2018-09-28T13:07:57.920Z,18.50
2018-09-28T13:10:37.505Z,18.50
2018-09-28T13:13:15.144Z,18.50
2018-09-28T13:49:50.253Z,18.50
2018-09-28T13:52:25.782Z,17.80
2018-09-28T13:54:56.373Z,17.70
2018-09-28T13:57:28.566Z,17.50
2018-09-28T14:02:34.490Z,17.50
2018-09-28T14:05:04.605Z,17.30
2018-09-28T14:07:42.401Z,17.30
2018-09-28T14:10:10.635Z,17.10
2018-09-28T14:12:39.469Z,16.90
2018-09-28T14:15:09.424Z,16.90
2018-09-28T14:17:40.431Z,16.80
2018-09-28T14:20:10.357Z,16.70
2018-09-28T14:22:38.849Z,16.60
2018-09-28T14:25:11.935Z,16.40
2018-09-28T14:27:42.018Z,16.40
2018-09-28T14:30:09.962Z,16.30
2018-09-28T14:32:45.912Z,16.30
2018-09-28T14:35:15.923Z,16.30
2018-09-28T14:37:46.221Z,16.20
2018-09-28T14:40:15.151Z,16.10
2018-09-28T14:42:45.936Z,16.00
2018-09-28T14:47:57.848Z,15.70
2018-09-28T14:50:28.624Z,15.70
2018-09-28T14:53:00.128Z,15.70
2018-09-28T14:55:29.113Z,15.60
2018-09-28T14:57:58.295Z,15.60
2018-09-28T15:00:26.758Z,15.60
2018-09-28T15:02:55.580Z,15.50
2018-09-28T15:05:25.970Z,15.50
2018-09-28T15:07:54.866Z,15.50
2018-09-28T15:10:23.633Z,15.40
2018-09-28T15:12:51.733Z,15.40
2018-09-28T15:15:22.348Z,15.40
2018-09-28T15:17:51.359Z,15.40
2018-09-28T15:20:25.079Z,15.20
2018-09-28T15:22:54.922Z,15.30
2018-09-28T15:25:23.758Z,15.20
2018-09-28T15:27:52.320Z,15.20
2018-09-28T15:30:21.060Z,15.20
2018-09-28T15:32:49.579Z,15.20
2018-09-28T15:35:22.648Z,15.10
2018-09-28T15:37:51.487Z,15.10
2018-09-28T15:40:20.107Z,15.10
2018-09-28T15:42:48.902Z,15.10
2018-09-28T15:45:18.515Z,15.10
2018-09-28T15:47:48.307Z,15.10
2018-09-28T15:50:17.504Z,15.10
2018-09-28T15:52:55.758Z,15.00
2018-09-28T15:55:25.747Z,15.00
2018-09-28T15:57:57.436Z,15.00
2018-09-28T16:00:32.845Z,15.00
2018-09-28T16:03:08.526Z,14.90
2018-09-28T16:05:37.552Z,14.90
2018-09-28T16:08:07.132Z,14.90
2018-09-28T16:10:35.686Z,14.90
2018-09-28T16:13:03.398Z,14.90
2018-09-28T16:15:33.334Z,14.80
2018-09-28T16:18:07.822Z,14.80
2018-09-28T16:20:36.522Z,14.80
2018-09-28T16:23:07.020Z,14.80
2018-09-28T16:25:35.239Z,14.80
2018-09-28T16:28:03.883Z,14.80
2018-09-28T16:30:32.413Z,14.80
2018-09-28T16:33:01.532Z,14.80
2018-09-28T16:35:31.302Z,14.70
2018-09-28T16:38:00.148Z,14.70
2018-09-28T16:40:28.006Z,14.70
2018-09-28T16:42:56.876Z,14.70
2018-09-28T16:45:32.364Z,14.70
2018-09-28T16:48:02.215Z,14.70
2018-09-28T16:50:31.126Z,14.70
2018-09-28T16:53:01.293Z,14.70
2018-09-28T16:55:33.121Z,14.70
2018-09-28T16:58:04.081Z,14.70
2018-09-28T17:00:37.677Z,14.60
2018-09-28T17:03:13.524Z,14.70
2018-09-28T17:05:46.586Z,14.70
2018-09-28T17:08:17.634Z,14.70
2018-09-28T17:10:49.898Z,14.70
2018-09-28T17:13:17.710Z,14.60
2018-09-28T17:15:50.411Z,14.60
2018-09-28T17:18:21.852Z,14.70
2018-09-28T17:20:52.127Z,14.60
2018-09-28T17:23:22.889Z,14.60
2018-09-28T17:25:58.807Z,14.60
2018-09-28T17:28:37.573Z,14.60
2018-09-28T17:31:07.111Z,14.60
2018-09-28T17:33:36.982Z,14.60
2018-09-28T17:36:21.714Z,14.60
2018-09-28T17:38:52.916Z,14.60
2018-09-28T17:41:26.659Z,14.60
2018-09-28T17:43:56.155Z,14.60
2018-09-28T17:46:27.715Z,14.50
2018-09-28T17:49:00.989Z,14.50
2018-09-28T17:51:32.603Z,14.60
2018-09-28T17:54:03.324Z,14.60
2018-09-28T17:56:37.782Z,14.50
2018-09-28T17:59:09.855Z,14.50
2018-09-28T18:01:39.566Z,14.50
2018-09-28T18:04:11.515Z,14.50
2018-09-28T18:06:42.746Z,14.50
2018-09-28T18:09:14.142Z,14.50
2018-09-28T18:15:46.389Z,14.50
2018-09-28T18:18:17.060Z,14.50
2018-09-28T18:20:46.255Z,14.50
2018-09-28T18:23:14.431Z,14.50
2018-09-28T18:25:43.750Z,14.40
2018-09-28T18:28:13.272Z,14.40
2018-09-28T18:30:43.238Z,14.40
2018-09-28T18:33:12.450Z,14.40
2018-09-28T18:35:40.822Z,14.40
2018-09-28T18:38:09.508Z,14.40
2018-09-28T18:40:39.335Z,14.40
2018-09-28T18:43:08.592Z,14.40
2018-09-28T18:45:36.715Z,14.40
2018-09-28T18:48:09.437Z,14.40
2018-09-28T18:50:46.339Z,14.30
2018-09-28T18:53:14.513Z,14.30
2018-09-28T18:55:45.017Z,14.30
2018-09-28T18:58:16.456Z,14.20
2018-09-28T19:00:48.387Z,14.20
2018-09-28T19:03:29.437Z,14.10
2018-09-28T19:05:59.299Z,14.10
2018-09-28T19:08:27.424Z,14.10
2018-09-28T19:11:00.800Z,14.00
2018-09-28T19:13:32.897Z,14.10
2018-09-28T19:16:17.495Z,14.00
2018-09-28T19:18:47.831Z,14.00
2018-09-28T19:21:17.048Z,14.00
2018-09-28T19:23:50.159Z,13.90
2018-09-28T19:26:22.595Z,13.90
2018-09-28T19:28:51.149Z,13.90
2018-09-28T19:31:20.924Z,13.80
2018-09-28T19:33:49.136Z,13.80
2018-09-28T19:36:17.407Z,13.70
2018-09-28T19:38:48.183Z,13.70
2018-09-28T19:41:17.832Z,13.70
2018-09-28T19:43:48.197Z,13.70
2018-09-28T19:46:17.418Z,13.60
2018-09-28T19:48:51.729Z,13.60
2018-09-28T19:51:19.731Z,13.60
2018-09-28T19:53:52.708Z,13.60
2018-09-28T19:56:21.085Z,13.50
2018-09-28T19:58:50.379Z,13.50
2018-09-28T20:01:19.891Z,13.40
2018-09-28T20:03:49.732Z,13.40
2018-09-28T20:06:19.784Z,13.40
2018-09-28T20:08:48.162Z,13.40
2018-09-28T20:11:16.365Z,13.40
2018-09-28T20:13:45.323Z,13.40
2018-09-28T20:16:15.032Z,13.20
2018-09-28T20:18:45.736Z,13.30
2018-09-28T20:21:14.654Z,13.30
2018-09-28T20:23:43.001Z,13.30
2018-09-28T20:26:11.714Z,13.20
2018-09-28T20:28:44.916Z,13.20
2018-09-28T20:31:19.115Z,13.20
2018-09-28T20:33:50.769Z,13.10
2018-09-28T20:36:18.501Z,13.10
2018-09-28T20:38:46.161Z,13.10
2018-09-28T20:41:13.767Z,13.10
2018-09-28T20:43:41.346Z,13.10
2018-09-28T20:46:09.037Z,13.00
2018-09-28T20:48:36.807Z,13.00
2018-09-28T20:51:04.385Z,13.00
2018-09-28T20:53:31.997Z,13.00
2018-09-28T20:56:00.630Z,13.00
2018-09-28T20:58:28.296Z,12.90
2018-09-28T21:00:55.909Z,12.80
2018-09-28T21:03:23.974Z,12.90
2018-09-28T21:05:51.527Z,12.80
2018-09-28T21:08:19.107Z,12.70
2018-09-28T21:10:46.645Z,12.70
2018-09-28T21:13:14.167Z,12.70
2018-09-28T21:15:41.771Z,12.50
2018-09-28T21:18:09.293Z,12.60
2018-09-28T21:20:37.246Z,12.60
2018-09-28T21:23:04.985Z,12.60
2018-09-28T21:25:33.583Z,12.60
2018-09-28T21:28:01.113Z,12.60
2018-09-28T21:30:28.701Z,12.50
2018-09-28T21:32:56.254Z,12.50
2018-09-28T21:35:23.732Z,12.50
2018-09-28T21:37:51.227Z,12.40
2018-09-28T21:40:18.789Z,12.40
2018-09-28T21:42:46.564Z,12.40
2018-09-28T21:45:14.186Z,12.40
2018-09-28T21:47:41.815Z,12.40
2018-09-28T21:50:09.645Z,12.30
2018-09-28T21:52:37.187Z,12.20
2018-09-28T21:55:05.323Z,12.30
2018-09-28T21:57:34.724Z,12.30
2018-09-28T22:00:03.207Z,12.30
2018-09-28T22:02:30.780Z,12.20
2018-09-28T22:04:58.341Z,12.10
2018-09-28T22:07:26.061Z,12.10
2018-09-28T22:09:53.737Z,12.10
2018-09-28T22:12:21.495Z,12.10
2018-09-28T22:14:49.103Z,12.10
2018-09-28T22:17:16.728Z,12.10
2018-09-28T22:19:44.405Z,12.10
2018-09-28T22:22:11.940Z,12.00
2018-09-28T22:24:39.539Z,12.00
2018-09-28T22:27:07.073Z,11.90
2018-09-28T22:29:34.610Z,11.90
2018-09-28T22:32:02.167Z,11.90
2018-09-28T22:34:29.803Z,11.80
2018-09-28T22:36:57.271Z,11.80
2018-09-28T22:39:24.917Z,11.70
2018-09-28T22:41:52.546Z,11.90
2018-09-28T22:44:20.300Z,11.80
2018-09-28T22:46:47.865Z,11.70
2018-09-28T22:49:15.379Z,11.80
2018-09-28T22:51:42.970Z,11.80
2018-09-28T22:54:10.542Z,11.90
2018-09-28T22:56:38.090Z,11.80
2018-09-28T22:59:05.666Z,11.80
2018-09-28T23:01:33.349Z,11.80
2018-09-28T23:04:00.868Z,11.70
2018-09-28T23:06:28.523Z,11.60
2018-09-28T23:08:56.113Z,11.60
2018-09-28T23:11:23.627Z,11.70
2018-09-28T23:13:51.212Z,11.70
2018-09-28T23:16:18.863Z,11.70
2018-09-28T23:18:46.537Z,11.60
2018-09-28T23:21:14.781Z,11.60
2018-09-28T23:23:42.393Z,11.60
2018-09-28T23:26:10.039Z,11.50
2018-09-28T23:28:37.583Z,11.40
2018-09-28T23:31:05.151Z,11.40
2018-09-28T23:33:32.702Z,11.40
2018-09-28T23:36:00.195Z,11.30
2018-09-28T23:38:27.729Z,11.30
2018-09-28T23:40:55.309Z,11.30
2018-09-28T23:43:22.839Z,11.30
2018-09-28T23:45:50.817Z,11.30
2018-09-28T23:48:18.396Z,11.30
2018-09-28T23:50:45.994Z,11.30
2018-09-28T23:53:13.516Z,11.20
2018-09-28T23:55:41.032Z,11.20
2018-09-28T23:58:09.005Z,11.20
